sensor_id;sensor_type;location;lat;lon;timestamp;P1;durP1;ratioP1;P2;durP2;ratioP2
58990;SDS011;44781;53.444;14.476;2023-01-26T00:01:49;23.50;;;9.10;;
58990;SDS011;44781;53.444;14.476;2023-01-26T00:04:16;22.30;;;11.10;;
58990;SDS011;44781;53.444;14.476;2023-01-26T00:06:44;21.80;;;10.50;;
58990;SDS011;44781;53.444;14.476;2023-01-26T00:09:12;22.80;;;11.20;;
58990;SDS011;44781;53.444;14.476;2023-01-26T00:11:40;22.80;;;11.50;;
58990;SDS011;44781;53.444;14.476;2023-01-26T00:14:09;23.80;;;12.30;;
58990;SDS011;44781;53.444;14.476;2023-01-26T00:16:40;20.50;;;10.50;;
58990;SDS011;44781;53.444;14.476;2023-01-26T00:19:08;21.90;;;10.40;;
58990;SDS011;44781;53.444;14.476;2023-01-26T00:21:35;22.10;;;10.70;;
58990;SDS011;44781;53.444;14.476;2023-01-26T00:24:02;21.50;;;11.60;;
58990;SDS011;44781;53.444;14.476;2023-01-26T00:26:30;24.30;;;10.30;;
58990;SDS011;44781;53.444;14.476;2023-01-26T00:28:58;22.20;;;10.50;;
58990;SDS011;44781;53.444;14.476;2023-01-26T00:31:25;20.00;;;9.70;;
58990;SDS011;44781;53.444;14.476;2023-01-26T00:33:55;20.60;;;10.20;;
58990;SDS011;44781;53.444;14.476;2023-01-26T00:36:23;21.50;;;10.50;;
58990;SDS011;44781;53.444;14.476;2023-01-26T00:38:50;22.90;;;11.40;;
58990;SDS011;44781;53.444;14.476;2023-01-26T00:41:17;25.40;;;11.60;;
58990;SDS011;44781;53.444;14.476;2023-01-26T00:44:03;19.70;;;9.60;;
58990;SDS011;44781;53.444;14.476;2023-01-26T00:46:30;22.20;;;10.30;;
58990;SDS011;44781;53.444;14.476;2023-01-26T00:48:57;21.20;;;10.20;;
58990;SDS011;44781;53.444;14.476;2023-01-26T00:51:26;19.00;;;9.30;;
58990;SDS011;44781;53.444;14.476;2023-01-26T00:53:54;19.40;;;9.70;;
58990;SDS011;44781;53.444;14.476;2023-01-26T00:56:22;16.80;;;8.10;;
58990;SDS011;44781;53.444;14.476;2023-01-26T00:58:53;18.40;;;9.20;;
58990;SDS011;44781;53.444;14.476;2023-01-26T01:01:20;17.40;;;8.70;;
58990;SDS011;44781;53.444;14.476;2023-01-26T01:03:48;19.60;;;9.50;;
58990;SDS011;44781;53.444;14.476;2023-01-26T01:06:16;19.30;;;9.70;;
58990;SDS011;44781;53.444;14.476;2023-01-26T01:08:45;22.20;;;10.10;;
58990;SDS011;44781;53.444;14.476;2023-01-26T01:11:12;23.10;;;10.30;;
58990;SDS011;44781;53.444;14.476;2023-01-26T01:13:39;21.60;;;10.30;;
58990;SDS011;44781;53.444;14.476;2023-01-26T01:16:10;18.70;;;9.20;;
58990;SDS011;44781;53.444;14.476;2023-01-26T01:18:39;21.10;;;11.10;;
58990;SDS011;44781;53.444;14.476;2023-01-26T01:21:06;21.10;;;10.20;;
58990;SDS011;44781;53.444;14.476;2023-01-26T01:23:34;22.40;;;9.80;;
58990;SDS011;44781;53.444;14.476;2023-01-26T01:26:02;20.10;;;8.70;;
58990;SDS011;44781;53.444;14.476;2023-01-26T01:28:31;21.50;;;9.80;;
58990;SDS011;44781;53.444;14.476;2023-01-26T01:31:03;18.90;;;9.20;;
58990;SDS011;44781;53.444;14.476;2023-01-26T01:33:36;21.10;;;9.50;;
58990;SDS011;44781;53.444;14.476;2023-01-26T01:36:08;20.80;;;9.80;;
58990;SDS011;44781;53.444;14.476;2023-01-26T01:38:38;21.00;;;10.10;;
58990;SDS011;44781;53.444;14.476;2023-01-26T01:41:06;20.70;;;9.20;;
58990;SDS011;44781;53.444;14.476;2023-01-26T01:43:34;18.60;;;8.90;;
58990;SDS011;44781;53.444;14.476;2023-01-26T01:46:06;17.10;;;8.20;;
58990;SDS011;44781;53.444;14.476;2023-01-26T01:51:18;19.30;;;8.70;;
58990;SDS011;44781;53.444;14.476;2023-01-26T01:53:51;16.20;;;8.10;;
58990;SDS011;44781;53.444;14.476;2023-01-26T01:56:20;20.20;;;10.20;;
58990;SDS011;44781;53.444;14.476;2023-01-26T02:01:21;17.30;;;7.60;;
58990;SDS011;44781;53.444;14.476;2023-01-26T02:03:49;15.60;;;7.40;;
58990;SDS011;44781;53.444;14.476;2023-01-26T02:09:00;16.80;;;8.00;;
58990;SDS011;44781;53.444;14.476;2023-01-26T02:11:40;17.60;;;7.90;;
58990;SDS011;44781;53.444;14.476;2023-01-26T02:14:11;16.80;;;7.80;;
58990;SDS011;44781;53.444;14.476;2023-01-26T02:16:40;18.60;;;8.70;;
58990;SDS011;44781;53.444;14.476;2023-01-26T02:19:09;19.90;;;8.90;;
58990;SDS011;44781;53.444;14.476;2023-01-26T02:21:46;20.40;;;9.30;;
58990;SDS011;44781;53.444;14.476;2023-01-26T02:24:20;19.80;;;8.80;;
58990;SDS011;44781;53.444;14.476;2023-01-26T02:26:52;20.00;;;9.70;;
58990;SDS011;44781;53.444;14.476;2023-01-26T02:29:20;22.10;;;9.90;;
58990;SDS011;44781;53.444;14.476;2023-01-26T02:31:48;21.60;;;10.30;;
58990;SDS011;44781;53.444;14.476;2023-01-26T02:34:15;20.20;;;9.40;;
58990;SDS011;44781;53.444;14.476;2023-01-26T02:36:42;20.80;;;9.90;;
58990;SDS011;44781;53.444;14.476;2023-01-26T02:42:16;21.70;;;10.00;;
58990;SDS011;44781;53.444;14.476;2023-01-26T02:45:01;22.10;;;9.20;;
58990;SDS011;44781;53.444;14.476;2023-01-26T02:47:29;22.40;;;10.30;;
58990;SDS011;44781;53.444;14.476;2023-01-26T02:49:57;21.80;;;10.10;;
58990;SDS011;44781;53.444;14.476;2023-01-26T02:52:28;22.30;;;9.80;;
58990;SDS011;44781;53.444;14.476;2023-01-26T02:55:03;23.80;;;10.80;;
58990;SDS011;44781;53.444;14.476;2023-01-26T02:57:49;22.00;;;10.10;;
58990;SDS011;44781;53.444;14.476;2023-01-26T03:00:22;19.70;;;9.60;;
58990;SDS011;44781;53.444;14.476;2023-01-26T03:02:52;23.90;;;10.10;;
58990;SDS011;44781;53.444;14.476;2023-01-26T03:05:21;21.70;;;9.50;;
58990;SDS011;44781;53.444;14.476;2023-01-26T03:07:48;23.90;;;10.80;;
58990;SDS011;44781;53.444;14.476;2023-01-26T03:10:16;20.70;;;9.50;;
58990;SDS011;44781;53.444;14.476;2023-01-26T03:12:43;22.00;;;9.60;;
58990;SDS011;44781;53.444;14.476;2023-01-26T03:15:11;25.50;;;9.70;;
58990;SDS011;44781;53.444;14.476;2023-01-26T03:18:05;24.70;;;9.50;;
58990;SDS011;44781;53.444;14.476;2023-01-26T03:20:52;21.60;;;9.70;;
58990;SDS011;44781;53.444;14.476;2023-01-26T03:23:38;21.30;;;9.70;;
58990;SDS011;44781;53.444;14.476;2023-01-26T03:26:24;21.40;;;9.70;;
58990;SDS011;44781;53.444;14.476;2023-01-26T03:29:10;20.00;;;9.60;;
58990;SDS011;44781;53.444;14.476;2023-01-26T03:31:38;21.80;;;9.80;;
58990;SDS011;44781;53.444;14.476;2023-01-26T03:34:05;21.40;;;8.50;;
58990;SDS011;44781;53.444;14.476;2023-01-26T03:36:33;21.40;;;9.80;;
58990;SDS011;44781;53.444;14.476;2023-01-26T03:39:02;21.00;;;9.30;;
58990;SDS011;44781;53.444;14.476;2023-01-26T03:41:34;17.80;;;8.20;;
58990;SDS011;44781;53.444;14.476;2023-01-26T03:44:20;18.20;;;8.30;;
58990;SDS011;44781;53.444;14.476;2023-01-26T03:47:05;18.20;;;8.30;;
58990;SDS011;44781;53.444;14.476;2023-01-26T03:49:51;16.60;;;8.60;;
58990;SDS011;44781;53.444;14.476;2023-01-26T03:52:37;18.10;;;8.20;;
58990;SDS011;44781;53.444;14.476;2023-01-26T03:55:23;19.20;;;9.30;;
58990;SDS011;44781;53.444;14.476;2023-01-26T03:58:10;19.40;;;8.60;;
58990;SDS011;44781;53.444;14.476;2023-01-26T04:00:38;20.80;;;8.50;;
58990;SDS011;44781;53.444;14.476;2023-01-26T04:03:05;20.20;;;9.20;;
58990;SDS011;44781;53.444;14.476;2023-01-26T04:05:51;16.40;;;7.40;;
58990;SDS011;44781;53.444;14.476;2023-01-26T04:08:42;15.90;;;7.50;;
58990;SDS011;44781;53.444;14.476;2023-01-26T04:11:10;14.00;;;7.20;;
58990;SDS011;44781;53.444;14.476;2023-01-26T04:13:37;16.10;;;7.30;;
58990;SDS011;44781;53.444;14.476;2023-01-26T04:16:30;15.50;;;7.10;;
58990;SDS011;44781;53.444;14.476;2023-01-26T04:19:17;14.00;;;6.60;;
58990;SDS011;44781;53.444;14.476;2023-01-26T04:22:04;14.10;;;6.50;;
58990;SDS011;44781;53.444;14.476;2023-01-26T04:24:33;11.30;;;5.90;;
58990;SDS011;44781;53.444;14.476;2023-01-26T04:27:00;13.90;;;6.50;;
58990;SDS011;44781;53.444;14.476;2023-01-26T04:29:34;13.90;;;6.50;;
58990;SDS011;44781;53.444;14.476;2023-01-26T04:32:01;12.80;;;6.40;;
58990;SDS011;44781;53.444;14.476;2023-01-26T04:34:29;12.70;;;5.90;;
58990;SDS011;44781;53.444;14.476;2023-01-26T04:36:57;13.70;;;6.20;;
58990;SDS011;44781;53.444;14.476;2023-01-26T04:39:29;11.30;;;5.70;;
58990;SDS011;44781;53.444;14.476;2023-01-26T04:41:56;13.90;;;6.40;;
58990;SDS011;44781;53.444;14.476;2023-01-26T04:44:24;13.30;;;6.70;;
58990;SDS011;44781;53.444;14.476;2023-01-26T04:46:54;13.10;;;6.00;;
58990;SDS011;44781;53.444;14.476;2023-01-26T04:49:22;14.20;;;7.00;;
58990;SDS011;44781;53.444;14.476;2023-01-26T04:51:49;14.40;;;6.90;;
58990;SDS011;44781;53.444;14.476;2023-01-26T04:54:19;14.40;;;6.90;;
58990;SDS011;44781;53.444;14.476;2023-01-26T04:56:46;12.20;;;5.70;;
58990;SDS011;44781;53.444;14.476;2023-01-26T04:59:16;11.30;;;5.90;;
58990;SDS011;44781;53.444;14.476;2023-01-26T05:01:43;10.80;;;5.30;;
58990;SDS011;44781;53.444;14.476;2023-01-26T05:04:11;12.60;;;5.60;;
58990;SDS011;44781;53.444;14.476;2023-01-26T05:06:41;11.70;;;5.60;;
58990;SDS011;44781;53.444;14.476;2023-01-26T05:09:08;14.20;;;6.90;;
58990;SDS011;44781;53.444;14.476;2023-01-26T05:11:38;13.90;;;6.70;;
58990;SDS011;44781;53.444;14.476;2023-01-26T05:14:14;12.50;;;6.40;;
58990;SDS011;44781;53.444;14.476;2023-01-26T05:16:58;14.30;;;6.50;;
58990;SDS011;44781;53.444;14.476;2023-01-26T05:19:45;12.50;;;5.90;;
58990;SDS011;44781;53.444;14.476;2023-01-26T05:22:19;14.00;;;6.50;;
58990;SDS011;44781;53.444;14.476;2023-01-26T05:25:06;11.10;;;4.90;;
58990;SDS011;44781;53.444;14.476;2023-01-26T05:27:40;12.00;;;5.50;;
58990;SDS011;44781;53.444;14.476;2023-01-26T05:30:08;11.70;;;5.70;;
58990;SDS011;44781;53.444;14.476;2023-01-26T05:32:37;12.60;;;5.60;;
58990;SDS011;44781;53.444;14.476;2023-01-26T05:35:06;12.70;;;6.10;;
58990;SDS011;44781;53.444;14.476;2023-01-26T05:37:34;12.40;;;5.60;;
58990;SDS011;44781;53.444;14.476;2023-01-26T05:40:02;13.00;;;5.00;;
58990;SDS011;44781;53.444;14.476;2023-01-26T05:42:29;13.30;;;5.90;;
58990;SDS011;44781;53.444;14.476;2023-01-26T05:45:26;13.90;;;7.70;;
58990;SDS011;44781;53.444;14.476;2023-01-26T05:47:56;12.80;;;6.00;;
58990;SDS011;44781;53.444;14.476;2023-01-26T05:50:24;14.40;;;7.80;;
58990;SDS011;44781;53.444;14.476;2023-01-26T05:53:13;16.60;;;7.00;;
58990;SDS011;44781;53.444;14.476;2023-01-26T05:55:41;13.90;;;6.30;;
58990;SDS011;44781;53.444;14.476;2023-01-26T05:58:09;13.00;;;6.90;;
58990;SDS011;44781;53.444;14.476;2023-01-26T06:00:37;15.30;;;7.40;;
58990;SDS011;44781;53.444;14.476;2023-01-26T06:03:08;15.50;;;8.20;;
58990;SDS011;44781;53.444;14.476;2023-01-26T06:05:35;15.90;;;7.30;;
58990;SDS011;44781;53.444;14.476;2023-01-26T06:08:12;16.60;;;7.60;;
58990;SDS011;44781;53.444;14.476;2023-01-26T06:11:06;13.20;;;6.30;;
58990;SDS011;44781;53.444;14.476;2023-01-26T06:13:46;13.80;;;7.10;;
58990;SDS011;44781;53.444;14.476;2023-01-26T06:16:20;14.70;;;7.10;;
58990;SDS011;44781;53.444;14.476;2023-01-26T06:18:49;13.80;;;6.40;;
58990;SDS011;44781;53.444;14.476;2023-01-26T06:21:17;15.20;;;6.80;;
58990;SDS011;44781;53.444;14.476;2023-01-26T06:23:59;15.00;;;7.00;;
58990;SDS011;44781;53.444;14.476;2023-01-26T06:26:26;14.30;;;7.50;;
58990;SDS011;44781;53.444;14.476;2023-01-26T06:28:56;14.90;;;7.00;;
58990;SDS011;44781;53.444;14.476;2023-01-26T06:31:25;15.70;;;6.90;;
58990;SDS011;44781;53.444;14.476;2023-01-26T06:33:56;16.70;;;8.60;;
58990;SDS011;44781;53.444;14.476;2023-01-26T06:36:24;14.90;;;7.50;;
58990;SDS011;44781;53.444;14.476;2023-01-26T06:38:52;17.80;;;7.80;;
58990;SDS011;44781;53.444;14.476;2023-01-26T06:41:19;17.10;;;7.90;;
58990;SDS011;44781;53.444;14.476;2023-01-26T06:43:47;16.70;;;7.90;;
58990;SDS011;44781;53.444;14.476;2023-01-26T06:46:15;16.20;;;7.70;;
58990;SDS011;44781;53.444;14.476;2023-01-26T06:48:44;13.20;;;6.90;;
58990;SDS011;44781;53.444;14.476;2023-01-26T06:53:46;15.50;;;6.80;;
58990;SDS011;44781;53.444;14.476;2023-01-26T06:56:47;15.20;;;7.50;;
58990;SDS011;44781;53.444;14.476;2023-01-26T06:59:41;13.90;;;7.00;;
58990;SDS011;44781;53.444;14.476;2023-01-26T07:02:23;13.40;;;6.40;;
58990;SDS011;44781;53.444;14.476;2023-01-26T07:04:50;14.10;;;7.20;;
58990;SDS011;44781;53.444;14.476;2023-01-26T07:07:18;14.10;;;7.40;;
58990;SDS011;44781;53.444;14.476;2023-01-26T07:09:45;15.20;;;7.20;;
58990;SDS011;44781;53.444;14.476;2023-01-26T07:12:13;16.90;;;9.30;;
58990;SDS011;44781;53.444;14.476;2023-01-26T07:14:40;18.80;;;10.50;;
58990;SDS011;44781;53.444;14.476;2023-01-26T07:17:08;15.40;;;8.00;;
58990;SDS011;44781;53.444;14.476;2023-01-26T07:19:36;13.60;;;6.50;;
58990;SDS011;44781;53.444;14.476;2023-01-26T07:22:03;12.80;;;6.40;;
58990;SDS011;44781;53.444;14.476;2023-01-26T07:24:31;13.90;;;6.30;;
58990;SDS011;44781;53.444;14.476;2023-01-26T07:26:59;15.70;;;9.20;;
58990;SDS011;44781;53.444;14.476;2023-01-26T07:29:27;15.70;;;10.10;;
58990;SDS011;44781;53.444;14.476;2023-01-26T07:31:54;24.70;;;16.50;;
58990;SDS011;44781;53.444;14.476;2023-01-26T07:34:22;17.80;;;10.10;;
58990;SDS011;44781;53.444;14.476;2023-01-26T07:36:50;14.80;;;7.30;;
58990;SDS011;44781;53.444;14.476;2023-01-26T07:39:18;15.10;;;7.70;;
58990;SDS011;44781;53.444;14.476;2023-01-26T07:41:46;15.30;;;7.20;;
58990;SDS011;44781;53.444;14.476;2023-01-26T07:44:33;14.40;;;7.40;;
58990;SDS011;44781;53.444;14.476;2023-01-26T07:47:00;18.00;;;8.40;;
58990;SDS011;44781;53.444;14.476;2023-01-26T07:49:27;15.40;;;8.00;;
58990;SDS011;44781;53.444;14.476;2023-01-26T07:51:55;13.70;;;7.90;;
58990;SDS011;44781;53.444;14.476;2023-01-26T07:54:23;14.70;;;6.80;;
58990;SDS011;44781;53.444;14.476;2023-01-26T07:56:53;15.70;;;8.30;;
58990;SDS011;44781;53.444;14.476;2023-01-26T07:59:21;17.30;;;7.80;;
58990;SDS011;44781;53.444;14.476;2023-01-26T08:01:49;15.10;;;7.40;;
58990;SDS011;44781;53.444;14.476;2023-01-26T08:04:16;21.60;;;12.40;;
58990;SDS011;44781;53.444;14.476;2023-01-26T08:06:45;19.80;;;10.80;;
58990;SDS011;44781;53.444;14.476;2023-01-26T08:09:12;16.00;;;9.30;;
58990;SDS011;44781;53.444;14.476;2023-01-26T08:11:39;16.90;;;8.10;;
58990;SDS011;44781;53.444;14.476;2023-01-26T08:14:09;18.00;;;8.70;;
58990;SDS011;44781;53.444;14.476;2023-01-26T08:16:36;18.80;;;9.90;;
58990;SDS011;44781;53.444;14.476;2023-01-26T08:19:03;18.10;;;8.90;;
58990;SDS011;44781;53.444;14.476;2023-01-26T08:21:31;16.50;;;8.20;;
58990;SDS011;44781;53.444;14.476;2023-01-26T08:24:01;18.10;;;8.70;;
58990;SDS011;44781;53.444;14.476;2023-01-26T08:26:29;17.80;;;8.80;;
58990;SDS011;44781;53.444;14.476;2023-01-26T08:28:57;19.60;;;9.20;;
58990;SDS011;44781;53.444;14.476;2023-01-26T08:31:24;21.60;;;9.50;;
58990;SDS011;44781;53.444;14.476;2023-01-26T08:33:54;17.60;;;8.20;;
58990;SDS011;44781;53.444;14.476;2023-01-26T08:36:22;21.90;;;9.60;;
58990;SDS011;44781;53.444;14.476;2023-01-26T08:38:50;17.90;;;7.90;;
58990;SDS011;44781;53.444;14.476;2023-01-26T08:41:17;15.10;;;8.30;;
58990;SDS011;44781;53.444;14.476;2023-01-26T08:43:45;20.20;;;9.90;;
58990;SDS011;44781;53.444;14.476;2023-01-26T08:46:13;18.60;;;8.80;;
58990;SDS011;44781;53.444;14.476;2023-01-26T08:48:40;16.60;;;8.60;;
58990;SDS011;44781;53.444;14.476;2023-01-26T08:51:08;20.50;;;9.60;;
58990;SDS011;44781;53.444;14.476;2023-01-26T08:53:36;19.20;;;8.70;;
58990;SDS011;44781;53.444;14.476;2023-01-26T08:56:04;19.60;;;9.40;;
58990;SDS011;44781;53.444;14.476;2023-01-26T08:58:34;20.10;;;9.50;;
58990;SDS011;44781;53.444;14.476;2023-01-26T09:01:03;20.10;;;9.90;;
58990;SDS011;44781;53.444;14.476;2023-01-26T09:03:34;21.30;;;10.40;;
58990;SDS011;44781;53.444;14.476;2023-01-26T09:06:02;22.00;;;10.10;;
58990;SDS011;44781;53.444;14.476;2023-01-26T09:08:31;26.30;;;11.20;;
58990;SDS011;44781;53.444;14.476;2023-01-26T09:10:58;26.10;;;11.90;;
58990;SDS011;44781;53.444;14.476;2023-01-26T09:13:28;23.00;;;9.70;;
58990;SDS011;44781;53.444;14.476;2023-01-26T09:15:56;22.80;;;10.50;;
58990;SDS011;44781;53.444;14.476;2023-01-26T09:18:24;23.70;;;10.50;;
58990;SDS011;44781;53.444;14.476;2023-01-26T09:20:52;24.30;;;10.40;;
58990;SDS011;44781;53.444;14.476;2023-01-26T09:23:21;23.30;;;10.60;;
58990;SDS011;44781;53.444;14.476;2023-01-26T09:25:52;21.10;;;10.30;;
58990;SDS011;44781;53.444;14.476;2023-01-26T09:30:47;22.10;;;9.60;;
58990;SDS011;44781;53.444;14.476;2023-01-26T09:33:14;22.10;;;9.40;;
58990;SDS011;44781;53.444;14.476;2023-01-26T09:35:42;21.40;;;8.90;;
58990;SDS011;44781;53.444;14.476;2023-01-26T09:38:10;19.10;;;9.00;;
58990;SDS011;44781;53.444;14.476;2023-01-26T09:40:44;22.20;;;9.90;;
58990;SDS011;44781;53.444;14.476;2023-01-26T09:49:55;38.10;;;20.30;;
58990;SDS011;44781;53.444;14.476;2023-01-26T09:52:30;54.50;;;30.30;;
58990;SDS011;44781;53.444;14.476;2023-01-26T09:55:02;29.70;;;17.00;;
58990;SDS011;44781;53.444;14.476;2023-01-26T09:57:42;24.00;;;13.40;;
58990;SDS011;44781;53.444;14.476;2023-01-26T10:00:25;24.50;;;11.60;;
58990;SDS011;44781;53.444;14.476;2023-01-26T10:08:41;20.80;;;10.30;;
58990;SDS011;44781;53.444;14.476;2023-01-26T10:11:28;20.10;;;9.30;;
58990;SDS011;44781;53.444;14.476;2023-01-26T10:14:04;19.60;;;9.20;;
58990;SDS011;44781;53.444;14.476;2023-01-26T10:16:33;20.50;;;8.90;;
58990;SDS011;44781;53.444;14.476;2023-01-26T10:19:28;20.30;;;9.70;;
58990;SDS011;44781;53.444;14.476;2023-01-26T10:21:59;21.80;;;10.30;;
58990;SDS011;44781;53.444;14.476;2023-01-26T10:24:32;20.70;;;8.80;;
58990;SDS011;44781;53.444;14.476;2023-01-26T10:27:00;19.60;;;8.90;;
58990;SDS011;44781;53.444;14.476;2023-01-26T10:29:27;17.80;;;8.60;;
58990;SDS011;44781;53.444;14.476;2023-01-26T10:31:55;18.10;;;8.20;;
58990;SDS011;44781;53.444;14.476;2023-01-26T10:34:23;15.30;;;7.70;;
58990;SDS011;44781;53.444;14.476;2023-01-26T10:36:55;15.70;;;6.70;;
58990;SDS011;44781;53.444;14.476;2023-01-26T10:39:28;15.00;;;6.00;;
58990;SDS011;44781;53.444;14.476;2023-01-26T10:41:59;14.60;;;6.10;;
58990;SDS011;44781;53.444;14.476;2023-01-26T10:44:32;15.00;;;6.30;;
58990;SDS011;44781;53.444;14.476;2023-01-26T10:49:44;16.70;;;7.00;;
58990;SDS011;44781;53.444;14.476;2023-01-26T10:52:16;15.60;;;7.10;;
58990;SDS011;44781;53.444;14.476;2023-01-26T10:54:48;17.20;;;7.40;;
58990;SDS011;44781;53.444;14.476;2023-01-26T10:57:36;15.50;;;7.10;;
58990;SDS011;44781;53.444;14.476;2023-01-26T11:06:04;17.00;;;7.80;;
58990;SDS011;44781;53.444;14.476;2023-01-26T11:08:33;16.10;;;8.00;;
58990;SDS011;44781;53.444;14.476;2023-01-26T11:11:03;14.30;;;6.40;;
58990;SDS011;44781;53.444;14.476;2023-01-26T11:13:33;14.40;;;6.70;;
58990;SDS011;44781;53.444;14.476;2023-01-26T11:16:02;15.30;;;7.20;;
58990;SDS011;44781;53.444;14.476;2023-01-26T11:21:49;14.80;;;6.40;;
58990;SDS011;44781;53.444;14.476;2023-01-26T11:24:24;13.10;;;6.10;;
58990;SDS011;44781;53.444;14.476;2023-01-26T11:38:05;15.80;;;6.80;;
58990;SDS011;44781;53.444;14.476;2023-01-26T11:40:53;15.60;;;6.60;;
58990;SDS011;44781;53.444;14.476;2023-01-26T11:54:32;15.00;;;6.60;;
58990;SDS011;44781;53.444;14.476;2023-01-26T11:57:24;18.50;;;8.20;;
58990;SDS011;44781;53.444;14.476;2023-01-26T12:00:18;17.30;;;8.30;;
58990;SDS011;44781;53.444;14.476;2023-01-26T12:02:53;15.80;;;7.30;;
58990;SDS011;44781;53.444;14.476;2023-01-26T12:05:30;17.20;;;8.10;;
58990;SDS011;44781;53.444;14.476;2023-01-26T12:08:14;15.90;;;7.50;;
58990;SDS011;44781;53.444;14.476;2023-01-26T12:13:26;18.50;;;7.70;;
58990;SDS011;44781;53.444;14.476;2023-01-26T12:16:12;13.80;;;7.10;;
58990;SDS011;44781;53.444;14.476;2023-01-26T12:19:31;15.50;;;6.70;;
58990;SDS011;44781;53.444;14.476;2023-01-26T12:22:05;15.20;;;7.30;;
58990;SDS011;44781;53.444;14.476;2023-01-26T12:24:44;61.10;;;31.60;;
58990;SDS011;44781;53.444;14.476;2023-01-26T12:27:33;16.90;;;8.30;;
58990;SDS011;44781;53.444;14.476;2023-01-26T12:30:23;13.50;;;7.20;;
58990;SDS011;44781;53.444;14.476;2023-01-26T12:33:01;14.00;;;7.50;;
58990;SDS011;44781;53.444;14.476;2023-01-26T12:38:33;14.80;;;8.00;;
58990;SDS011;44781;53.444;14.476;2023-01-26T12:41:10;15.50;;;7.20;;
58990;SDS011;44781;53.444;14.476;2023-01-26T12:46:31;17.10;;;7.70;;
58990;SDS011;44781;53.444;14.476;2023-01-26T12:49:08;16.00;;;7.70;;
58990;SDS011;44781;53.444;14.476;2023-01-26T12:51:50;17.80;;;8.40;;
58990;SDS011;44781;53.444;14.476;2023-01-26T12:57:26;17.40;;;8.20;;
58990;SDS011;44781;53.444;14.476;2023-01-26T13:00:06;15.20;;;7.60;;
58990;SDS011;44781;53.444;14.476;2023-01-26T13:02:44;15.00;;;7.80;;
58990;SDS011;44781;53.444;14.476;2023-01-26T13:07:51;13.40;;;7.30;;
58990;SDS011;44781;53.444;14.476;2023-01-26T13:10:20;16.00;;;8.00;;
58990;SDS011;44781;53.444;14.476;2023-01-26T13:15:27;16.60;;;8.00;;
58990;SDS011;44781;53.444;14.476;2023-01-26T13:18:00;15.40;;;7.30;;
58990;SDS011;44781;53.444;14.476;2023-01-26T13:20:40;12.20;;;6.00;;
58990;SDS011;44781;53.444;14.476;2023-01-26T13:23:57;13.80;;;6.80;;
58990;SDS011;44781;53.444;14.476;2023-01-26T13:26:19;14.40;;;6.80;;
58990;SDS011;44781;53.444;14.476;2023-01-26T13:31:51;13.00;;;6.10;;
58990;SDS011;44781;53.444;14.476;2023-01-26T13:34:31;13.60;;;6.90;;
58990;SDS011;44781;53.444;14.476;2023-01-26T13:37:12;13.50;;;6.80;;
58990;SDS011;44781;53.444;14.476;2023-01-26T13:39:46;13.50;;;5.90;;
58990;SDS011;44781;53.444;14.476;2023-01-26T13:42:24;12.20;;;5.70;;
58990;SDS011;44781;53.444;14.476;2023-01-26T13:45:03;12.30;;;5.60;;
58990;SDS011;44781;53.444;14.476;2023-01-26T13:47:35;13.10;;;6.00;;
58990;SDS011;44781;53.444;14.476;2023-01-26T13:52:56;12.10;;;5.20;;
58990;SDS011;44781;53.444;14.476;2023-01-26T13:55:25;11.30;;;5.40;;
58990;SDS011;44781;53.444;14.476;2023-01-26T13:58:09;12.70;;;5.10;;
58990;SDS011;44781;53.444;14.476;2023-01-26T14:00:40;11.30;;;5.20;;
58990;SDS011;44781;53.444;14.476;2023-01-26T14:03:18;12.40;;;5.60;;
58990;SDS011;44781;53.444;14.476;2023-01-26T14:05:59;11.70;;;5.20;;
58990;SDS011;44781;53.444;14.476;2023-01-26T14:08:30;14.30;;;5.50;;
58990;SDS011;44781;53.444;14.476;2023-01-26T14:11:00;13.10;;;6.30;;
58990;SDS011;44781;53.444;14.476;2023-01-26T14:16:00;12.70;;;6.10;;
58990;SDS011;44781;53.444;14.476;2023-01-26T14:18:29;14.30;;;6.40;;
58990;SDS011;44781;53.444;14.476;2023-01-26T14:20:58;13.20;;;6.60;;
58990;SDS011;44781;53.444;14.476;2023-01-26T14:23:27;15.50;;;6.40;;
58990;SDS011;44781;53.444;14.476;2023-01-26T14:26:00;12.20;;;6.10;;
58990;SDS011;44781;53.444;14.476;2023-01-26T14:28:35;12.10;;;6.00;;
58990;SDS011;44781;53.444;14.476;2023-01-26T14:31:17;13.80;;;6.20;;
58990;SDS011;44781;53.444;14.476;2023-01-26T14:33:47;15.20;;;6.70;;
58990;SDS011;44781;53.444;14.476;2023-01-26T14:36:27;15.50;;;7.30;;
58990;SDS011;44781;53.444;14.476;2023-01-26T14:38:58;15.90;;;7.70;;
58990;SDS011;44781;53.444;14.476;2023-01-26T14:41:28;17.50;;;8.10;;
58990;SDS011;44781;53.444;14.476;2023-01-26T14:43:58;18.10;;;7.80;;
58990;SDS011;44781;53.444;14.476;2023-01-26T14:49:06;42.80;;;14.50;;
58990;SDS011;44781;53.444;14.476;2023-01-26T14:51:39;58.60;;;20.70;;
58990;SDS011;44781;53.444;14.476;2023-01-26T14:54:16;60.00;;;21.70;;
58990;SDS011;44781;53.444;14.476;2023-01-26T14:56:55;63.20;;;23.40;;
58990;SDS011;44781;53.444;14.476;2023-01-26T14:59:43;69.60;;;25.90;;
58990;SDS011;44781;53.444;14.476;2023-01-26T15:02:17;64.40;;;26.40;;
58990;SDS011;44781;53.444;14.476;2023-01-26T15:04:57;68.80;;;25.20;;
58990;SDS011;44781;53.444;14.476;2023-01-26T15:10:24;54.10;;;22.30;;
58990;SDS011;44781;53.444;14.476;2023-01-26T15:15:42;65.30;;;26.50;;
58990;SDS011;44781;53.444;14.476;2023-01-26T15:18:19;74.00;;;27.80;;
58990;SDS011;44781;53.444;14.476;2023-01-26T15:23:28;66.90;;;26.40;;
58990;SDS011;44781;53.444;14.476;2023-01-26T15:26:02;68.80;;;23.10;;
58990;SDS011;44781;53.444;14.476;2023-01-26T15:28:40;62.30;;;22.70;;
58990;SDS011;44781;53.444;14.476;2023-01-26T15:31:08;66.30;;;25.30;;
58990;SDS011;44781;53.444;14.476;2023-01-26T15:33:48;74.70;;;24.30;;
58990;SDS011;44781;53.444;14.476;2023-01-26T15:39:00;72.10;;;24.40;;
58990;SDS011;44781;53.444;14.476;2023-01-26T15:41:43;57.30;;;22.30;;
58990;SDS011;44781;53.444;14.476;2023-01-26T15:44:18;66.00;;;24.20;;
58990;SDS011;44781;53.444;14.476;2023-01-26T15:46:47;75.10;;;26.20;;
58990;SDS011;44781;53.444;14.476;2023-01-26T15:49:14;71.70;;;24.90;;
58990;SDS011;44781;53.444;14.476;2023-01-26T15:51:45;75.80;;;28.00;;
58990;SDS011;44781;53.444;14.476;2023-01-26T15:54:13;80.70;;;28.90;;
58990;SDS011;44781;53.444;14.476;2023-01-26T15:56:40;74.10;;;25.80;;
58990;SDS011;44781;53.444;14.476;2023-01-26T15:59:08;74.00;;;27.40;;
58990;SDS011;44781;53.444;14.476;2023-01-26T16:01:35;80.40;;;26.60;;
58990;SDS011;44781;53.444;14.476;2023-01-26T16:04:03;69.40;;;24.80;;
58990;SDS011;44781;53.444;14.476;2023-01-26T16:06:31;54.40;;;20.70;;
58990;SDS011;44781;53.444;14.476;2023-01-26T16:08:59;47.00;;;18.30;;
58990;SDS011;44781;53.444;14.476;2023-01-26T16:11:28;46.60;;;20.00;;
58990;SDS011;44781;53.444;14.476;2023-01-26T16:13:59;62.20;;;23.60;;
58990;SDS011;44781;53.444;14.476;2023-01-26T16:16:28;53.20;;;19.30;;
58990;SDS011;44781;53.444;14.476;2023-01-26T16:18:56;55.00;;;20.50;;
58990;SDS011;44781;53.444;14.476;2023-01-26T16:21:25;56.70;;;20.10;;
58990;SDS011;44781;53.444;14.476;2023-01-26T16:23:57;54.00;;;19.20;;
58990;SDS011;44781;53.444;14.476;2023-01-26T16:26:24;61.90;;;20.80;;
58990;SDS011;44781;53.444;14.476;2023-01-26T16:28:53;64.90;;;21.20;;
58990;SDS011;44781;53.444;14.476;2023-01-26T16:31:22;65.70;;;22.00;;